createdAt,value
2019-02-16T00:00:47.894Z,0.73
2019-02-16T00:03:20.635Z,0.67
2019-02-16T00:05:51.459Z,0.73
2019-02-16T00:08:22.730Z,0.75
2019-02-16T00:10:53.520Z,0.83
2019-02-16T00:13:24.529Z,0.90
2019-02-16T00:15:55.404Z,0.91
2019-02-16T00:18:26.314Z,0.89
2019-02-16T00:21:03.798Z,0.83
2019-02-16T00:23:29.662Z,0.79
2019-02-16T00:26:00.593Z,0.78
2019-02-16T00:28:31.845Z,0.74
2019-02-16T00:31:02.797Z,0.71
2019-02-16T00:33:33.683Z,0.59
2019-02-16T00:36:04.954Z,0.57
2019-02-16T00:38:37.186Z,0.57
2019-02-16T00:41:08.167Z,0.59
2019-02-16T00:43:39.153Z,0.48
2019-02-16T00:46:09.958Z,0.49
2019-02-16T00:48:41.040Z,0.53
2019-02-16T00:51:13.865Z,0.51
2019-02-16T00:53:45.286Z,0.50
2019-02-16T00:56:16.128Z,0.50
2019-02-16T00:58:46.907Z,0.46
2019-02-16T01:01:17.789Z,0.46
2019-02-16T01:03:48.571Z,0.49
2019-02-16T01:06:19.908Z,0.48
2019-02-16T01:08:50.868Z,0.49
2019-02-16T01:11:21.956Z,0.42
2019-02-16T01:13:52.826Z,0.39
2019-02-16T01:16:23.824Z,0.40
2019-02-16T01:18:54.631Z,0.42
2019-02-16T01:21:25.567Z,0.44
2019-02-16T01:23:56.522Z,0.37
2019-02-16T01:26:27.385Z,0.32
2019-02-16T01:28:58.256Z,0.32
2019-02-16T01:31:29.169Z,0.29
2019-02-16T01:34:00.053Z,0.23
2019-02-16T01:36:30.957Z,0.20
2019-02-16T01:39:01.803Z,0.22
2019-02-16T01:41:34.237Z,0.25
2019-02-16T01:44:05.856Z,0.20
2019-02-16T01:46:36.726Z,0.18
2019-02-16T01:49:07.406Z,0.21
2019-02-16T01:51:38.356Z,0.22
2019-02-16T01:54:09.392Z,0.23
2019-02-16T01:56:40.344Z,0.27
2019-02-16T01:59:11.309Z,0.26
2019-02-16T02:01:42.469Z,0.20
2019-02-16T02:04:13.300Z,0.20
2019-02-16T02:06:44.179Z,0.20
2019-02-16T02:09:15.283Z,0.17
2019-02-16T02:11:46.184Z,0.18
2019-02-16T02:14:17.263Z,0.14
2019-02-16T02:16:48.060Z,0.15
2019-02-16T02:19:20.125Z,0.15
2019-02-16T02:21:50.950Z,0.16
2019-02-16T02:24:21.788Z,0.10
2019-02-16T02:26:52.775Z,0.16
2019-02-16T02:29:23.568Z,0.20
2019-02-16T02:31:54.570Z,0.24
2019-02-16T02:34:25.325Z,0.22
2019-02-16T02:36:56.233Z,0.19
2019-02-16T02:39:27.107Z,0.14
2019-02-16T02:41:58.020Z,0.14
2019-02-16T02:44:28.793Z,0.09
2019-02-16T02:46:59.682Z,0.03
2019-02-16T02:49:30.576Z,-0.01
2019-02-16T02:52:02.866Z,-0.02
2019-02-16T02:54:33.762Z,-0.05
2019-02-16T02:57:04.808Z,-0.08
2019-02-16T02:59:35.763Z,-0.12
2019-02-16T03:02:07.140Z,-0.15
2019-02-16T03:04:37.932Z,-0.16
2019-02-16T03:07:08.935Z,-0.21
2019-02-16T03:09:39.819Z,-0.19
2019-02-16T03:12:10.719Z,-0.15
2019-02-16T03:14:41.581Z,-0.15
2019-02-16T03:17:12.475Z,-0.12
2019-02-16T03:19:45.307Z,-0.08
2019-02-16T03:22:16.192Z,-0.16
2019-02-16T03:24:46.989Z,-0.18
2019-02-16T03:27:37.331Z,-0.15
2019-02-16T03:30:42.716Z,-0.11
2019-02-16T03:33:57.173Z,-0.14
2019-02-16T03:37:02.209Z,-0.22
2019-02-16T03:39:39.854Z,-0.27
2019-02-16T03:42:10.656Z,-0.36
2019-02-16T03:44:41.550Z,-0.33
2019-02-16T03:47:12.313Z,-0.43
2019-02-16T03:49:43.392Z,-0.45
2019-02-16T03:52:14.653Z,-0.39
2019-02-16T03:54:45.851Z,-0.31
2019-02-16T03:57:16.757Z,-0.28
2019-02-16T03:59:47.738Z,-0.28
2019-02-16T04:02:19.641Z,-0.31
2019-02-16T04:04:50.431Z,-0.35
2019-02-16T04:07:21.437Z,-0.37
2019-02-16T04:09:52.298Z,-0.38
2019-02-16T04:12:23.382Z,-0.41
2019-02-16T04:14:54.192Z,-0.42
2019-02-16T04:17:25.101Z,-0.43
2019-02-16T04:19:55.875Z,-0.44
2019-02-16T04:22:26.853Z,-0.57
2019-02-16T04:24:57.630Z,-0.50
2019-02-16T04:27:28.461Z,-0.54
2019-02-16T04:29:59.343Z,-0.56
2019-02-16T04:32:30.131Z,-0.59
2019-02-16T04:35:01.069Z,-0.55
2019-02-16T04:37:31.972Z,-0.58
2019-02-16T04:40:02.857Z,-0.60
2019-02-16T04:42:34.294Z,-0.68
2019-02-16T04:45:05.605Z,-0.65
2019-02-16T04:47:36.434Z,-0.67
2019-02-16T04:50:07.209Z,-0.65
2019-02-16T04:52:38.088Z,-0.70
2019-02-16T04:55:09.606Z,-0.73
2019-02-16T04:57:40.451Z,-0.74
2019-02-16T05:00:11.628Z,-0.74
2019-02-16T05:02:42.538Z,-0.72
2019-02-16T05:05:13.409Z,-0.71
2019-02-16T05:07:44.297Z,-0.64
2019-02-16T05:10:15.316Z,-0.72
2019-02-16T05:12:46.189Z,-0.75
2019-02-16T05:15:17.062Z,-0.79
2019-02-16T05:17:47.657Z,-0.81
2019-02-16T05:20:18.832Z,-0.80
2019-02-16T05:22:49.628Z,-0.80
2019-02-16T05:25:20.879Z,-0.80
2019-02-16T05:27:51.709Z,-0.85
2019-02-16T05:30:22.598Z,-0.85
2019-02-16T05:32:53.442Z,-0.82
2019-02-16T05:35:24.335Z,-0.81
2019-02-16T05:37:55.292Z,-0.87
2019-02-16T05:40:26.194Z,-0.86
2019-02-16T05:42:57.235Z,-0.85
2019-02-16T05:45:28.190Z,-0.85
2019-02-16T05:47:59.069Z,-0.88
2019-02-16T05:50:29.859Z,-0.90
2019-02-16T05:53:00.850Z,-0.87
2019-02-16T05:55:31.625Z,-0.95
2019-02-16T05:58:02.502Z,-0.91
2019-02-16T06:00:33.346Z,-0.96
2019-02-16T06:03:04.280Z,-0.94
2019-02-16T06:05:35.416Z,-0.94
2019-02-16T06:08:06.220Z,-0.99
2019-02-16T06:10:37.109Z,-1.01
2019-02-16T06:13:07.989Z,-1.02
2019-02-16T06:15:38.884Z,-1.04
2019-02-16T06:18:09.804Z,-1.06
2019-02-16T06:20:40.716Z,-1.09
2019-02-16T06:23:11.594Z,-1.14
2019-02-16T06:25:42.372Z,-1.12
2019-02-16T06:28:13.208Z,-1.10
2019-02-16T06:30:44.249Z,-1.15
2019-02-16T06:33:15.090Z,-1.14
2019-02-16T06:35:56.328Z,-1.15
2019-02-16T06:38:27.307Z,-1.12
2019-02-16T06:40:58.204Z,-1.11
2019-02-16T06:43:29.097Z,-1.10
2019-02-16T06:46:00.962Z,-1.15
2019-02-16T06:48:31.832Z,-1.15
2019-02-16T06:51:02.625Z,-1.10
2019-02-16T06:53:33.517Z,-1.08
2019-02-16T06:56:09.789Z,-1.08
2019-02-16T06:58:40.785Z,-1.11
2019-02-16T07:01:11.605Z,-1.15
2019-02-16T07:03:42.488Z,-1.13
2019-02-16T07:06:13.621Z,-1.24
2019-02-16T07:08:44.442Z,-1.25
2019-02-16T07:11:15.582Z,-1.16
2019-02-16T07:13:46.529Z,-1.05
2019-02-16T07:16:35.040Z,-1.02
2019-02-16T07:19:24.717Z,-0.92
2019-02-16T07:21:55.703Z,-0.86
2019-02-16T07:24:26.718Z,-0.82
2019-02-16T07:26:57.590Z,-0.75
2019-02-16T07:29:28.370Z,-0.72
2019-02-16T07:31:59.282Z,-0.70
2019-02-16T07:34:30.155Z,-0.70
2019-02-16T07:37:01.053Z,-0.63
2019-02-16T07:39:31.940Z,-0.58
2019-02-16T07:42:02.894Z,-0.55
2019-02-16T07:44:52.639Z,-0.49
2019-02-16T07:47:54.503Z,-0.44
2019-02-16T07:50:44.282Z,-0.40
2019-02-16T07:53:20.735Z,-0.36
2019-02-16T07:56:09.103Z,-0.26
2019-02-16T07:58:57.652Z,-0.21
2019-02-16T08:01:46.149Z,-0.19
2019-02-16T08:04:51.341Z,-0.12
2019-02-16T08:07:43.918Z,-0.01
2019-02-16T08:10:21.194Z,0.14
2019-02-16T08:12:58.976Z,0.25
2019-02-16T08:15:50.460Z,0.36
2019-02-16T08:18:49.284Z,0.46
2019-02-16T08:21:41.932Z,0.62
2019-02-16T08:24:29.869Z,0.67
2019-02-16T08:27:28.871Z,0.75
2019-02-16T08:30:15.985Z,0.80
2019-02-16T08:33:08.530Z,0.90
2019-02-16T08:35:57.081Z,1.06
2019-02-16T08:38:46.862Z,1.23
2019-02-16T08:41:26.812Z,1.30
2019-02-16T08:44:15.261Z,1.45
2019-02-16T08:46:55.927Z,1.50
2019-02-16T08:49:58.053Z,1.56
2019-02-16T08:52:47.878Z,1.68
2019-02-16T08:55:33.488Z,1.89
2019-02-16T08:58:14.844Z,2.17
2019-02-16T09:01:22.751Z,2.30
2019-02-16T09:04:15.501Z,2.33
2019-02-16T09:07:04.051Z,2.50
2019-02-16T09:09:47.080Z,2.69
2019-02-16T09:12:35.727Z,2.73
2019-02-16T09:15:35.137Z,2.92
2019-02-16T09:18:23.891Z,3.12
2019-02-16T09:21:14.134Z,3.16
2019-02-16T09:23:59.149Z,3.27
2019-02-16T09:26:50.773Z,3.36
2019-02-16T09:29:40.964Z,3.49
2019-02-16T09:32:29.618Z,3.65
2019-02-16T09:35:29.126Z,3.72
2019-02-16T09:38:31.398Z,3.80
2019-02-16T09:41:14.026Z,4.05
2019-02-16T09:44:02.871Z,4.24
2019-02-16T09:46:55.724Z,4.28
2019-02-16T09:49:45.507Z,4.60
2019-02-16T09:52:38.662Z,4.69
2019-02-16T09:55:17.998Z,4.78
2019-02-16T09:57:57.732Z,4.90
2019-02-16T10:00:47.627Z,5.01
2019-02-16T10:03:32.493Z,4.99
2019-02-16T10:06:34.368Z,5.22
2019-02-16T10:09:24.545Z,5.32
2019-02-16T10:12:22.524Z,5.65
2019-02-16T10:15:15.470Z,5.90
2019-02-16T10:18:06.788Z,6.05
2019-02-16T10:20:54.932Z,6.09
2019-02-16T10:23:44.590Z,6.49
2019-02-16T10:26:23.329Z,6.47
2019-02-16T10:29:11.881Z,6.65
2019-02-16T10:31:55.313Z,6.56
2019-02-16T10:34:42.534Z,6.64
2019-02-16T10:37:32.109Z,6.86
2019-02-16T10:40:22.001Z,6.95
2019-02-16T10:43:11.774Z,6.89
2019-02-16T10:46:06.980Z,6.99
2019-02-16T10:48:44.147Z,7.12
2019-02-16T10:51:49.100Z,7.24
2019-02-16T10:54:38.889Z,7.56
2019-02-16T10:57:28.765Z,7.62
2019-02-16T11:00:31.878Z,7.76
2019-02-16T11:03:20.511Z,7.71
2019-02-16T11:06:06.818Z,7.72
2019-02-16T11:08:56.694Z,7.93
2019-02-16T11:11:58.660Z,7.94
2019-02-16T11:14:54.585Z,8.21
2019-02-16T11:18:02.694Z,8.35
2019-02-16T11:20:51.451Z,8.31
2019-02-16T11:23:39.181Z,8.29
2019-02-16T11:26:38.234Z,8.46
2019-02-16T11:29:34.307Z,8.64
2019-02-16T11:32:24.189Z,8.77
2019-02-16T11:35:05.266Z,8.72
2019-02-16T11:37:41.111Z,8.80
2019-02-16T11:40:36.942Z,8.93
2019-02-16T11:43:19.890Z,8.96
2019-02-16T11:46:00.124Z,9.11
2019-02-16T11:48:46.008Z,9.17
2019-02-16T11:51:31.145Z,9.16
2019-02-16T11:54:13.077Z,9.50
2019-02-16T11:57:06.031Z,9.42
2019-02-16T11:59:49.771Z,9.49
2019-02-16T12:02:42.316Z,9.55
2019-02-16T12:05:32.300Z,9.66
2019-02-16T12:08:20.212Z,9.98
2019-02-16T12:11:10.056Z,9.94
2019-02-16T12:13:58.671Z,10.01
2019-02-16T12:17:03.916Z,10.28
2019-02-16T12:19:50.386Z,10.45
2019-02-16T12:22:26.616Z,10.30
2019-02-16T12:25:14.978Z,10.46
2019-02-16T12:28:10.645Z,10.56
2019-02-16T12:30:59.197Z,10.66
2019-02-16T12:33:51.948Z,10.73
2019-02-16T12:36:49.305Z,10.91
2019-02-16T12:39:33.145Z,11.07
2019-02-16T12:42:25.164Z,10.96
2019-02-16T12:45:14.960Z,11.25
2019-02-16T12:48:03.207Z,11.14
2019-02-16T12:50:45.204Z,11.24
2019-02-16T12:53:41.127Z,11.26
2019-02-16T12:56:29.677Z,11.35
2019-02-16T12:59:15.594Z,11.53
2019-02-16T13:02:04.658Z,11.56
2019-02-16T13:05:06.496Z,11.58
2019-02-16T13:07:48.706Z,11.52
2019-02-16T13:10:36.329Z,11.73
2019-02-16T13:13:41.085Z,11.93
2019-02-16T13:16:30.839Z,12.04
2019-02-16T13:19:34.972Z,12.25
2019-02-16T13:22:17.428Z,12.26
2019-02-16T13:25:00.516Z,12.39
2019-02-16T13:27:56.358Z,12.28
2019-02-16T13:30:43.398Z,12.30
2019-02-16T13:33:48.261Z,12.39
2019-02-16T13:36:38.041Z,12.45
2019-02-16T13:39:22.701Z,12.50
2019-02-16T13:42:11.150Z,12.43
2019-02-16T13:45:09.872Z,12.55
2019-02-16T13:47:54.929Z,12.60
2019-02-16T13:50:34.378Z,12.57
2019-02-16T13:53:23.106Z,12.46
2019-02-16T13:56:11.553Z,12.47
2019-02-16T13:59:00.721Z,12.47
2019-02-16T14:01:39.055Z,12.53
2019-02-16T14:04:37.106Z,12.40
2019-02-16T14:07:25.862Z,12.60
2019-02-16T14:10:08.913Z,12.38
2019-02-16T14:12:55.899Z,12.50
2019-02-16T14:15:34.828Z,12.43
2019-02-16T14:18:05.820Z,12.23
2019-02-16T14:20:38.609Z,12.24
2019-02-16T14:23:09.141Z,12.13
2019-02-16T14:25:49.743Z,11.99
2019-02-16T14:28:20.732Z,11.99
2019-02-16T14:30:51.640Z,12.03
2019-02-16T14:33:22.514Z,11.97
2019-02-16T14:35:53.294Z,12.06
2019-02-16T14:38:29.968Z,12.13
2019-02-16T14:41:00.896Z,12.17
2019-02-16T14:43:33.662Z,12.24
2019-02-16T14:46:04.434Z,12.36
2019-02-16T14:48:35.503Z,12.28
2019-02-16T14:51:06.407Z,12.34
2019-02-16T14:53:37.288Z,12.48
2019-02-16T14:56:08.173Z,12.34
2019-02-16T14:58:39.317Z,12.14
2019-02-16T15:01:10.273Z,12.06
2019-02-16T15:03:41.264Z,12.44
2019-02-16T15:06:12.040Z,12.63
2019-02-16T15:08:42.932Z,12.41
2019-02-16T15:11:13.806Z,12.21
2019-02-16T15:13:45.155Z,11.95
2019-02-16T15:16:16.102Z,11.82
2019-02-16T15:18:47.277Z,11.69
2019-02-16T15:21:18.069Z,11.63
2019-02-16T15:23:49.113Z,11.61
2019-02-16T15:26:28.101Z,11.53
2019-02-16T15:28:52.595Z,11.40
2019-02-16T15:31:23.372Z,11.43
2019-02-16T15:33:54.323Z,11.68
2019-02-16T15:36:25.153Z,11.77
2019-02-16T15:38:57.875Z,11.85
2019-02-16T15:41:28.669Z,11.61
2019-02-16T15:43:59.641Z,11.40
2019-02-16T15:46:30.433Z,11.35
2019-02-16T15:49:01.611Z,11.28
2019-02-16T15:51:34.800Z,11.16
2019-02-16T15:54:05.652Z,11.10
2019-02-16T15:56:36.540Z,11.05
2019-02-16T15:59:09.539Z,10.99
2019-02-16T16:01:40.290Z,10.87
2019-02-16T16:04:11.633Z,10.82
2019-02-16T16:06:42.713Z,10.74
2019-02-16T16:09:37.060Z,10.75
2019-02-16T16:12:36.957Z,10.70
2019-02-16T16:15:30.117Z,11.14
2019-02-16T16:18:18.718Z,10.84
2019-02-16T16:21:00.416Z,10.39
2019-02-16T16:23:48.784Z,10.31
2019-02-16T16:26:37.563Z,10.40
2019-02-16T16:29:26.219Z,10.34
2019-02-16T16:32:04.808Z,10.18
2019-02-16T16:35:03.403Z,10.17
2019-02-16T16:37:49.824Z,10.07
2019-02-16T16:40:28.156Z,10.02
2019-02-16T16:43:10.958Z,9.95
2019-02-16T16:45:59.711Z,9.89
2019-02-16T16:48:51.953Z,9.81
2019-02-16T16:51:41.830Z,9.87
2019-02-16T16:54:18.707Z,9.78
2019-02-16T16:57:14.428Z,9.70
2019-02-16T17:00:01.544Z,9.62
2019-02-16T17:02:53.065Z,9.45
2019-02-16T17:05:42.950Z,9.39
2019-02-16T17:08:21.803Z,9.41
2019-02-16T17:11:12.992Z,9.36
2019-02-16T17:14:12.767Z,9.27
2019-02-16T17:17:08.626Z,9.22
2019-02-16T17:19:58.379Z,9.14
2019-02-16T17:22:50.956Z,9.09
2019-02-16T17:25:46.875Z,8.94
2019-02-16T17:28:42.904Z,8.83
2019-02-16T17:31:22.440Z,8.56
2019-02-16T17:34:05.668Z,8.28
2019-02-16T17:36:47.518Z,8.15
2019-02-16T17:39:40.233Z,8.02
2019-02-16T17:42:22.414Z,7.90
2019-02-16T17:45:09.839Z,8.04
2019-02-16T17:48:06.583Z,8.09
2019-02-16T17:50:54.111Z,8.02
2019-02-16T17:53:49.830Z,8.04
2019-02-16T17:56:25.652Z,8.13
2019-02-16T17:59:11.339Z,8.21
2019-02-16T18:01:57.159Z,8.19
2019-02-16T18:04:39.150Z,8.07
2019-02-16T18:07:47.105Z,7.92
2019-02-16T18:10:35.915Z,7.93
2019-02-16T18:13:24.283Z,7.98
2019-02-16T18:16:16.909Z,8.00
2019-02-16T18:19:02.185Z,7.98
2019-02-16T18:21:47.153Z,7.97
2019-02-16T18:24:34.232Z,7.84
2019-02-16T18:27:27.019Z,7.75
2019-02-16T18:30:16.800Z,7.64
2019-02-16T18:33:12.929Z,7.62
2019-02-16T18:36:02.721Z,7.61
2019-02-16T18:39:01.603Z,7.62
2019-02-16T18:42:04.900Z,7.67
2019-02-16T18:45:01.566Z,7.55
2019-02-16T18:47:50.217Z,7.43
2019-02-16T18:50:35.984Z,7.28
2019-02-16T18:53:29.472Z,7.16
2019-02-16T18:56:19.597Z,7.07
2019-02-16T18:59:09.625Z,7.06
2019-02-16T19:02:05.672Z,7.03
2019-02-16T19:04:58.411Z,6.98
2019-02-16T19:07:43.952Z,6.91
2019-02-16T19:10:36.848Z,6.90
2019-02-16T19:13:25.231Z,6.87
2019-02-16T19:16:16.256Z,6.88
2019-02-16T19:19:05.461Z,6.84
2019-02-16T19:22:13.367Z,6.73
2019-02-16T19:25:05.913Z,6.55
2019-02-16T19:27:55.793Z,6.49
2019-02-16T19:30:44.347Z,6.43
2019-02-16T19:33:26.752Z,6.37
2019-02-16T19:36:19.709Z,6.23
2019-02-16T19:39:06.321Z,6.23
2019-02-16T19:41:48.619Z,6.23
2019-02-16T19:44:33.795Z,6.23
2019-02-16T19:47:26.611Z,6.17
2019-02-16T19:50:16.330Z,6.17
2019-02-16T19:53:12.655Z,6.16
2019-02-16T19:56:05.611Z,6.06
2019-02-16T19:58:54.060Z,5.96
2019-02-16T20:01:44.250Z,5.89
2019-02-16T20:04:43.454Z,5.74
2019-02-16T20:07:25.764Z,5.63
2019-02-16T20:10:06.832Z,5.60
2019-02-16T20:12:59.378Z,5.45
2019-02-16T20:15:49.161Z,5.48
2019-02-16T20:18:37.811Z,5.36
2019-02-16T20:21:26.262Z,5.27
2019-02-16T20:24:04.945Z,5.13
2019-02-16T20:27:00.807Z,5.08
2019-02-16T20:29:40.038Z,5.04
2019-02-16T20:32:29.818Z,4.96
2019-02-16T20:35:25.638Z,4.89
2019-02-16T20:38:14.396Z,4.86
2019-02-16T20:41:03.152Z,4.79
2019-02-16T20:44:05.019Z,4.71
2019-02-16T20:46:47.219Z,4.63
2019-02-16T20:49:52.087Z,4.59
2019-02-16T20:52:40.402Z,4.55
2019-02-16T20:55:16.560Z,4.51
2019-02-16T20:58:01.530Z,4.42
2019-02-16T21:00:54.488Z,4.38
2019-02-16T21:03:34.434Z,4.36
2019-02-16T21:06:30.055Z,4.30
2019-02-16T21:09:19.829Z,4.28
2019-02-16T21:12:21.590Z,4.21
2019-02-16T21:15:01.442Z,4.20
2019-02-16T21:18:09.597Z,4.14
2019-02-16T21:20:57.895Z,4.11
2019-02-16T21:23:46.453Z,4.01
2019-02-16T21:26:36.307Z,3.88
2019-02-16T21:29:12.918Z,3.76
2019-02-16T21:31:58.284Z,3.73
2019-02-16T21:34:53.774Z,3.63
2019-02-16T21:37:46.444Z,3.64
2019-02-16T21:40:29.979Z,3.58
2019-02-16T21:43:19.755Z,3.61
2019-02-16T21:46:15.585Z,3.56
2019-02-16T21:48:52.664Z,3.54
2019-02-16T21:51:42.380Z,3.52
2019-02-16T21:54:35.190Z,3.38
2019-02-16T21:57:25.176Z,3.31
2019-02-16T22:00:30.009Z,3.25
2019-02-16T22:03:31.416Z,3.27
2019-02-16T22:06:21.141Z,3.18
2019-02-16T22:09:09.794Z,3.15
2019-02-16T22:12:02.934Z,3.13
2019-02-16T22:14:33.843Z,3.16
2019-02-16T22:17:04.834Z,3.09
2019-02-16T22:19:36.006Z,3.03
2019-02-16T22:22:09.063Z,3.00
2019-02-16T22:24:40.122Z,2.91
2019-02-16T22:27:10.946Z,2.88
2019-02-16T22:29:41.939Z,2.86
2019-02-16T22:32:12.821Z,2.83
2019-02-16T22:34:43.716Z,2.79
2019-02-16T22:37:16.555Z,2.75
2019-02-16T22:39:47.610Z,2.72
2019-02-16T22:42:18.827Z,2.74
2019-02-16T22:44:49.710Z,2.65
2019-02-16T22:47:20.703Z,2.65
2019-02-16T22:49:51.878Z,2.63
2019-02-16T22:52:23.504Z,2.56
2019-02-16T22:54:54.303Z,2.51
2019-02-16T22:57:25.172Z,2.48
2019-02-16T22:59:56.344Z,2.37
2019-02-16T23:02:27.250Z,2.34
2019-02-16T23:04:58.260Z,2.32
2019-02-16T23:07:29.131Z,2.27
2019-02-16T23:10:00.259Z,2.19
2019-02-16T23:12:31.396Z,2.20
2019-02-16T23:15:02.700Z,2.21
2019-02-16T23:17:34.426Z,2.11
2019-02-16T23:20:05.951Z,2.02
2019-02-16T23:22:37.020Z,1.97
2019-02-16T23:25:08.116Z,1.91
2019-02-16T23:27:39.101Z,1.90
2019-02-16T23:30:10.490Z,1.91
2019-02-16T23:32:41.299Z,1.87
2019-02-16T23:35:12.397Z,1.90
2019-02-16T23:37:43.277Z,1.90
2019-02-16T23:40:14.248Z,1.90
2019-02-16T23:42:45.042Z,1.93
2019-02-16T23:45:17.342Z,1.97
2019-02-16T23:47:48.147Z,1.96
2019-02-16T23:50:18.975Z,1.97
2019-02-16T23:52:50.686Z,1.90
2019-02-16T23:55:21.594Z,1.90
2019-02-16T23:57:52.410Z,1.89
